Time;durP1;ratioP1;P1;durP2;ratioP2;P2;SDS_P1;SDS_P2;PMS_P1;PMS_P2;Temp;Humidity;BMP_temperature;BMP_pressure;BME280_temperature;BME280_humidity;BME280_pressure;Samples;Min_cycle;Max_cycle;Signal;HPM_P1;HPM_P2
2021/04/26 00:00:17;;;;;;;;;;;;;;;18.89;59.15;100942.84;5070998;28;1521;-62
2021/04/26 00:02:44;;;;;;;;;;;;;;;18.90;59.19;100951.72;5071192;28;1979;-59
2021/04/26 00:05:11;;;;;;;;;;;;;;;18.89;59.15;100942.84;5075763;28;1759;-63
2021/04/26 00:07:38;;;;;;;;;;;;;;;18.90;59.13;100949.03;5076041;28;1442;-62
2021/04/26 00:10:04;;;;;;;;;;;;;;;18.88;59.03;100930.44;5074957;28;1371;-63
2021/04/26 00:12:30;;;;;;;;;;;;;;;18.87;58.94;100940.28;5073266;28;1655;-62
2021/04/26 00:14:56;;;;;;;;;;;;;;;18.87;59.03;100944.78;5071701;28;1556;-62
2021/04/26 00:17:23;;;;;;;;;;;;;;;18.90;59.15;100943.69;5076096;28;1445;-59
2021/04/26 00:19:50;;;;;;;;;;;;;;;18.86;59.03;100949.31;5077308;28;1369;-59
2021/04/26 00:22:16;;;;;;;;;;;;;;;18.90;59.28;100949.03;5070145;28;1533;-59
2021/04/26 00:24:42;;;;;;;;;;;;;;;18.88;59.22;100947.34;5072328;28;1973;-59
2021/04/26 00:27:08;;;;;;;;;;;;;;;18.86;58.88;100949.31;5076389;28;1424;-62
2021/04/26 00:29:34;;;;;;;;;;;;;;;18.86;59.37;100948.44;5075232;28;1560;-59
2021/04/26 00:32:01;;;;;;;;;;;;;;;18.86;59.65;100948.44;5075791;28;1762;-59
2021/04/26 00:34:27;;;;;;;;;;;;;;;18.84;59.32;100955.75;5071707;28;1510;-62
2021/04/26 00:36:54;;;;;;;;;;;;;;;18.83;59.54;100948.72;5076769;28;1156;-59
2021/04/26 00:39:20;;;;;;;;;;;;;;;18.84;59.71;100950.41;5075438;28;1560;-63
2021/04/26 00:41:46;;;;;;;;;;;;;;;18.84;59.81;100945.91;5073344;28;1508;-59
2021/04/26 00:44:12;;;;;;;;;;;;;;;18.82;59.37;100952.38;5075033;28;1973;-63
2021/04/26 00:46:38;;;;;;;;;;;;;;;18.84;59.54;100953.97;5073694;28;1450;-59
2021/04/26 00:49:04;;;;;;;;;;;;;;;18.84;59.32;100961.13;5067869;28;1573;-60
2021/04/26 00:51:31;;;;;;;;;;;;;;;18.83;59.68;100959.44;5075485;28;1365;-59
2021/04/26 00:53:58;;;;;;;;;;;;;;;18.83;59.49;100967.47;5071766;28;1548;-62
2021/04/26 00:56:24;;;;;;;;;;;;;;;18.81;59.68;100966.75;5073754;28;1445;-62
2021/04/26 00:58:50;;;;;;;;;;;;;;;18.74;60.01;100950.31;5074405;28;1756;-64
2021/04/26 01:01:17;;;;;;;;;;;;;;;18.74;59.61;100962.84;5068539;28;1716;-59
2021/04/26 01:03:43;;;;;;;;;;;;;;;18.76;59.78;100960.88;5071205;28;1984;-62
2021/04/26 01:06:09;;;;;;;;;;;;;;;18.74;59.50;100957.50;5072468;28;1509;-59
2021/04/26 01:08:35;;;;;;;;;;;;;;;18.69;59.88;100953.38;5073017;28;1748;-60
2021/04/26 01:11:02;;;;;;;;;;;;;;;18.68;60.05;100945.47;5070998;28;1218;-58
2021/04/26 01:13:42;;;;;;;;;;;;;;;18.66;60.20;100948.28;5071512;28;1342;-62
2021/04/26 01:16:12;;;;;;;;;;;;;;;18.67;59.95;100954.50;5074076;28;1318;-63
2021/04/26 01:18:43;;;;;;;;;;;;;;;18.65;59.74;100961.81;5074989;28;1498;-62
2021/04/26 01:21:24;;;;;;;;;;;;;;;18.64;59.77;100966.31;5073863;28;1386;-59
2021/04/26 01:24:08;;;;;;;;;;;;;;;18.63;60.03;100959.25;5029929;28;1991;-62
2021/04/26 01:26:38;;;;;;;;;;;;;;;18.63;59.80;100953.03;5073786;28;1466;-62
2021/04/26 01:29:07;;;;;;;;;;;;;;;18.63;59.92;100969.13;5074904;28;1326;-62
2021/04/26 01:31:39;;;;;;;;;;;;;;;18.65;59.92;100957.28;5068843;28;1513;-59
2021/04/26 01:34:06;;;;;;;;;;;;;;;18.62;59.71;100967.41;5075653;28;1553;-62
2021/04/26 01:36:32;;;;;;;;;;;;;;;18.61;60.20;100949.66;5072117;28;1455;-59
2021/04/26 01:38:59;;;;;;;;;;;;;;;18.60;60.42;100956.84;5074186;28;1195;-63
2021/04/26 01:41:26;;;;;;;;;;;;;;;18.63;59.93;100947.69;5074500;28;1342;-59
2021/04/26 01:43:53;;;;;;;;;;;;;;;18.57;60.05;100948.22;5070436;28;1902;-59
2021/04/26 01:46:20;;;;;;;;;;;;;;;18.59;60.16;100960.47;5073504;28;1271;-60
2021/04/26 01:48:47;;;;;;;;;;;;;;;18.58;60.07;100941.84;5075078;28;1319;-59
2021/04/26 01:51:15;;;;;;;;;;;;;;;18.59;59.71;100952.44;5065897;28;1372;-62
2021/04/26 01:53:42;;;;;;;;;;;;;;;18.59;60.14;100941.72;5075004;28;1299;-59
2021/04/26 01:56:09;;;;;;;;;;;;;;;18.59;60.29;100927.50;5068817;28;1505;-59
2021/04/26 01:58:39;;;;;;;;;;;;;;;18.58;59.74;100934.69;5074654;28;1751;-62
2021/04/26 02:03:40;;;;;;;;;;;;;;;18.57;59.90;100941.00;5004957;28;2026;-51
2021/04/26 02:06:07;;;;;;;;;;;;;;;18.57;60.41;100934.81;5010629;28;1521;-50
2021/04/26 02:08:34;;;;;;;;;;;;;;;18.53;59.82;100931.53;5004681;28;1953;-50
2021/04/26 02:11:00;;;;;;;;;;;;;;;18.55;59.78;100924.22;5030094;23;3899;-60
2021/04/26 02:13:27;;;;;;;;;;;;;;;18.57;60.36;100919.59;5037787;28;2003;-62
2021/04/26 02:15:54;;;;;;;;;;;;;;;18.55;60.01;100918.03;5036568;28;1349;-62
2021/04/26 02:18:20;;;;;;;;;;;;;;;18.53;60.17;100915.47;5035131;28;1509;-62
2021/04/26 02:20:46;;;;;;;;;;;;;;;18.57;59.94;100937.50;5041643;28;1303;-62
2021/04/26 02:23:12;;;;;;;;;;;;;;;18.55;60.39;100934.94;5034432;28;1899;-62
2021/04/26 02:25:40;;;;;;;;;;;;;;;18.54;60.09;100930.53;5039845;28;1537;-58
2021/04/26 02:28:06;;;;;;;;;;;;;;;18.53;59.95;100939.56;5034409;28;1454;-59
2021/04/26 02:30:32;;;;;;;;;;;;;;;18.54;60.17;100943.09;5036997;28;1418;-59
2021/04/26 02:33:02;;;;;;;;;;;;;;;18.53;59.87;100939.56;5039095;28;1140;-62
2021/04/26 02:35:32;;;;;;;;;;;;;;;18.84;59.55;100928.97;5037073;28;1364;-61
2021/04/26 02:37:59;;;;;;;;;;;;;;;19.57;57.67;100928.94;5035559;28;1817;-58
2021/04/26 02:40:27;;;;;;;;;;;;;;;20.17;56.26;100940.56;5040243;28;1597;-58
2021/04/26 02:42:56;;;;;;;;;;;;;;;19.98;56.38;100936.03;5033053;28;1987;-62
2021/04/26 02:45:24;;;;;;;;;;;;;;;20.30;56.26;100929.59;5033802;28;1287;-58
2021/04/26 02:47:50;;;;;;;;;;;;;;;20.44;55.98;100931.00;5033515;28;1559;-59
2021/04/26 02:50:19;;;;;;;;;;;;;;;20.41;55.37;100942.00;5045184;28;1149;-58
2021/04/26 02:52:46;;;;;;;;;;;;;;;20.51;54.95;100934.81;5037081;28;1423;-62
2021/04/26 02:55:12;;;;;;;;;;;;;;;20.48;55.44;100926.22;5035023;28;1378;-62
2021/04/26 02:57:38;;;;;;;;;;;;;;;20.50;55.37;100933.13;5033193;28;1329;-62
2021/04/26 03:00:06;;;;;;;;;;;;;;;20.54;55.04;100934.53;5031460;28;1658;-62
2021/04/26 03:02:32;;;;;;;;;;;;;;;20.55;55.55;100914.75;5047437;28;1390;-59
2021/04/26 03:04:59;;;;;;;;;;;;;;;20.63;55.13;100931.03;5037869;28;1898;-58
2021/04/26 03:07:27;;;;;;;;;;;;;;;20.63;55.46;100930.16;5032880;28;1236;-58
2021/04/26 03:09:55;;;;;;;;;;;;;;;20.64;54.96;100916.59;5033080;28;1506;-62
2021/04/26 03:12:21;;;;;;;;;;;;;;;20.68;54.95;100927.91;5037242;28;1350;-59
2021/04/26 03:14:48;;;;;;;;;;;;;;;20.71;55.18;100933.03;5030512;28;1525;-59
2021/04/26 03:17:15;;;;;;;;;;;;;;;20.72;55.12;100923.94;5038923;28;1521;-62
2021/04/26 03:19:42;;;;;;;;;;;;;;;20.71;54.70;100916.91;5046981;28;1212;-62
2021/04/26 03:22:09;;;;;;;;;;;;;;;20.75;55.00;100936.25;5039437;28;1591;-63
2021/04/26 03:24:36;;;;;;;;;;;;;;;20.75;55.25;100936.25;5036039;28;1913;-63
2021/04/26 03:27:03;;;;;;;;;;;;;;;20.71;55.39;100933.03;5034765;28;1447;-63
2021/04/26 03:29:29;;;;;;;;;;;;;;;20.74;55.51;100932.72;5030492;28;1662;-63
2021/04/26 03:31:56;;;;;;;;;;;;;;;20.83;55.38;100931.88;5039413;28;1176;-62
2021/04/26 03:34:23;;;;;;;;;;;;;;;20.75;55.51;100939.81;5032620;28;1245;-63
2021/04/26 03:36:49;;;;;;;;;;;;;;;20.81;55.54;100933.84;5037200;28;1408;-58
2021/04/26 03:39:16;;;;;;;;;;;;;;;20.87;55.31;100937.81;5042300;28;1876;-58
2021/04/26 03:41:42;;;;;;;;;;;;;;;20.76;54.71;100935.28;5032356;28;1386;-59
2021/04/26 03:44:12;;;;;;;;;;;;;;;20.65;54.98;100942.50;5034196;28;1979;-59
2021/04/26 03:46:44;;;;;;;;;;;;;;;20.64;55.13;100938.09;5034330;28;1356;-63
2021/04/26 03:49:10;;;;;;;;;;;;;;;20.65;55.66;100950.56;5037079;28;1272;-59
2021/04/26 03:51:36;;;;;;;;;;;;;;;20.73;55.04;100957.03;5037075;28;1443;-59
2021/04/26 03:54:03;;;;;;;;;;;;;;;20.81;55.24;100952.66;5043913;28;1510;-63
2021/04/26 03:56:29;;;;;;;;;;;;;;;20.33;55.89;100947.25;5032111;28;1370;-58
2021/04/26 03:58:55;;;;;;;;;;;;;;;19.94;57.16;100956.09;5031716;28;1479;-58
2021/04/26 04:01:21;;;;;;;;;;;;;;;19.85;57.48;100952.38;5035698;28;1442;-59
2021/04/26 04:03:47;;;;;;;;;;;;;;;19.84;57.59;100956.06;5033109;28;1902;-59
2021/04/26 04:06:13;;;;;;;;;;;;;;;19.85;57.52;100952.38;5034470;28;11021;-61
2021/04/26 04:08:40;;;;;;;;;;;;;;;19.93;57.25;100951.69;5048936;28;1382;-62
2021/04/26 04:11:06;;;;;;;;;;;;;;;20.16;56.92;100959.53;5049679;28;1316;-60
2021/04/26 04:13:32;;;;;;;;;;;;;;;20.50;56.18;100967.22;5050856;28;1320;-60
2021/04/26 04:15:58;;;;;;;;;;;;;;;21.09;54.94;100971.59;5050550;28;1538;-60
2021/04/26 04:18:24;;;;;;;;;;;;;;;21.83;52.66;100970.81;5049149;28;1347;-59
2021/04/26 04:20:50;;;;;;;;;;;;;;;22.42;51.15;100967.78;5043496;28;1498;-58
2021/04/26 04:23:16;;;;;;;;;;;;;;;22.58;50.35;100964.38;5046138;28;1902;-61
2021/04/26 04:25:43;;;;;;;;;;;;;;;22.90;49.78;100969.22;5047249;28;1227;-59
2021/04/26 04:28:09;;;;;;;;;;;;;;;23.07;49.13;100966.69;5047536;28;1629;-62
2021/04/26 04:30:35;;;;;;;;;;;;;;;22.98;49.85;100953.13;5051287;28;1481;-60
2021/04/26 04:33:01;;;;;;;;;;;;;;;22.85;50.48;100963.44;5050194;28;1327;-60
2021/04/26 04:35:28;;;;;;;;;;;;;;;22.80;49.93;100979.22;5049333;28;1274;-61
2021/04/26 04:37:54;;;;;;;;;;;;;;;22.76;50.47;100965.25;5049508;28;1629;-60
2021/04/26 04:40:20;;;;;;;;;;;;;;;22.82;50.39;100978.09;5049414;28;1396;-60
2021/04/26 04:42:47;;;;;;;;;;;;;;;23.00;49.84;100956.50;5051922;28;1347;-62
2021/04/26 04:45:13;;;;;;;;;;;;;;;23.00;49.43;100963.75;5053970;28;1918;-60
2021/04/26 04:47:39;;;;;;;;;;;;;;;22.96;49.98;100960.50;5054083;28;1366;-59
2021/04/26 04:50:06;;;;;;;;;;;;;;;22.68;49.79;100956.22;5054449;28;1288;-62
2021/04/26 04:52:32;;;;;;;;;;;;;;;22.09;51.62;100953.94;5053692;28;1415;-59
2021/04/26 04:54:58;;;;;;;;;;;;;;;21.33;53.03;100971.13;5053067;28;1240;-60
2021/04/26 04:57:24;;;;;;;;;;;;;;;20.88;53.57;100960.16;5051907;28;1318;-60
2021/04/26 04:59:51;;;;;;;;;;;;;;;20.65;54.07;100966.69;5051937;28;1415;-60
2021/04/26 05:02:17;;;;;;;;;;;;;;;20.56;54.82;100950.53;5052759;28;1638;-61
2021/04/26 05:04:43;;;;;;;;;;;;;;;20.53;56.13;100961.53;5052186;28;1981;-59
2021/04/26 05:07:09;;;;;;;;;;;;;;;20.54;55.30;100956.03;5051386;28;1506;-59
2021/04/26 05:09:36;;;;;;;;;;;;;;;20.48;56.49;100964.66;5055303;28;1320;-59
2021/04/26 05:12:02;;;;;;;;;;;;;;;20.44;56.97;100955.19;5053493;28;1423;-58
2021/04/26 05:14:28;;;;;;;;;;;;;;;20.45;56.77;100959.56;5053715;28;1472;-59
2021/04/26 05:16:55;;;;;;;;;;;;;;;20.51;55.98;100952.78;5053714;28;1447;-60
2021/04/26 05:19:22;;;;;;;;;;;;;;;20.51;56.23;100950.91;5054349;28;1121;-59
2021/04/26 05:21:48;;;;;;;;;;;;;;;20.54;56.99;100969.47;5053772;28;1200;-59
2021/04/26 05:24:14;;;;;;;;;;;;;;;20.56;56.53;100956.72;5055265;28;1902;-60
2021/04/26 05:26:40;;;;;;;;;;;;;;;20.57;56.36;100968.31;5054412;28;1296;-59
2021/04/26 05:29:07;;;;;;;;;;;;;;;20.59;56.24;100953.81;5060173;28;1602;-58
2021/04/26 05:31:33;;;;;;;;;;;;;;;20.57;56.68;100954.88;5052728;28;1355;-59
2021/04/26 05:34:00;;;;;;;;;;;;;;;20.46;56.42;100955.88;5053250;28;1080;-59
2021/04/26 05:36:26;;;;;;;;;;;;;;;20.44;56.73;100949.81;5052374;28;1212;-60
2021/04/26 05:38:52;;;;;;;;;;;;;;;20.40;57.17;100951.06;5047019;28;1393;-62
2021/04/26 05:41:18;;;;;;;;;;;;;;;20.37;56.52;100956.72;5053389;28;1528;-60
2021/04/26 05:43:44;;;;;;;;;;;;;;;20.33;57.19;100956.16;5052838;28;2042;-62
2021/04/26 05:46:10;;;;;;;;;;;;;;;20.35;56.64;100964.94;5054108;28;1217;-61
2021/04/26 05:48:36;;;;;;;;;;;;;;;20.31;57.12;100962.66;5052954;28;1610;-60
2021/04/26 05:51:03;;;;;;;;;;;;;;;20.26;56.82;100957.72;5042001;28;1391;-60
2021/04/26 05:53:30;;;;;;;;;;;;;;;20.25;56.88;100975.66;5049480;28;1317;-60
2021/04/26 05:55:56;;;;;;;;;;;;;;;20.20;56.89;100972.53;5053310;28;1587;-60
2021/04/26 05:58:23;;;;;;;;;;;;;;;20.26;57.02;100987.25;5051837;28;1484;-59
2021/04/26 06:00:49;;;;;;;;;;;;;;;20.25;57.71;100962.25;5052335;28;1378;-62
2021/04/26 06:03:15;;;;;;;;;;;;;;;20.24;57.39;100963.22;5052028;28;1977;-60
2021/04/26 06:05:41;;;;;;;;;;;;;;;20.20;57.89;100958.28;5052026;28;1363;-60
2021/04/26 06:08:08;;;;;;;;;;;;;;;20.18;57.55;100971.81;5053144;28;1417;-59
2021/04/26 06:10:34;;;;;;;;;;;;;;;20.14;57.61;100969.56;5051797;28;1295;-62
2021/04/26 06:13:00;;;;;;;;;;;;;;;20.13;57.82;100967.84;5052221;28;1615;-60
2021/04/26 06:15:27;;;;;;;;;;;;;;;20.11;57.58;100973.34;5052012;28;1699;-60
2021/04/26 06:17:53;;;;;;;;;;;;;;;20.09;57.86;100977.16;5052248;28;1629;-62
2021/04/26 06:20:19;;;;;;;;;;;;;;;20.09;58.36;100964.59;5053294;28;1220;-62
2021/04/26 06:22:45;;;;;;;;;;;;;;;20.05;57.59;100971.22;5052173;28;1709;-60
2021/04/26 06:25:13;;;;;;;;;;;;;;;20.11;57.48;100978.72;5052693;28;1902;-60
2021/04/26 06:27:39;;;;;;;;;;;;;;;20.10;57.63;100989.63;5043187;28;1463;-59
2021/04/26 06:30:05;;;;;;;;;;;;;;;20.04;58.03;100974.91;5050138;28;1423;-59
2021/04/26 06:32:31;;;;;;;;;;;;;;;20.01;58.49;100965.25;5051029;28;1387;-59
2021/04/26 06:34:57;;;;;;;;;;;;;;;20.02;57.94;100984.94;5045247;28;1430;-59
2021/04/26 06:37:24;;;;;;;;;;;;;;;20.04;58.45;100982.97;5046125;28;1939;-63
2021/04/26 06:39:50;;;;;;;;;;;;;;;20.01;58.30;100985.91;5045726;28;1410;-63
2021/04/26 06:42:17;;;;;;;;;;;;;;;20.02;58.12;100984.94;5045797;28;1390;-59
2021/04/26 06:44:43;;;;;;;;;;;;;;;20.04;58.35;100991.00;5045565;28;2033;-63
2021/04/26 06:47:11;;;;;;;;;;;;;;;20.05;58.29;100982.81;5045455;28;1202;-59
2021/04/26 06:49:37;;;;;;;;;;;;;;;20.10;57.73;100990.47;5047768;28;1259;-59
2021/04/26 06:52:03;;;;;;;;;;;;;;;20.21;57.12;100998.41;5045498;28;1380;-63
2021/04/26 06:54:29;;;;;;;;;;;;;;;20.25;56.20;100996.28;5046286;28;1450;-60
2021/04/26 06:56:56;;;;;;;;;;;;;;;20.19;55.66;100984.28;5045759;28;1450;-61
2021/04/26 06:59:23;;;;;;;;;;;;;;;20.20;54.96;100995.84;5046928;28;1324;-58
2021/04/26 07:01:49;;;;;;;;;;;;;;;20.22;55.40;100981.28;5044648;28;1388;-59
2021/04/26 07:04:15;;;;;;;;;;;;;;;20.24;54.73;100990.06;5045751;28;1906;-57
2021/04/26 07:06:41;;;;;;;;;;;;;;;20.22;55.12;100978.63;5046474;28;1465;-57
2021/04/26 07:09:07;;;;;;;;;;;;;;;20.22;54.42;100983.13;5043586;28;1431;-62
2021/04/26 07:11:33;;;;;;;;;;;;;;;20.24;55.05;100976.63;5046015;28;1389;-60
2021/04/26 07:14:00;;;;;;;;;;;;;;;20.22;54.50;100983.13;5047260;28;1480;-60
2021/04/26 07:16:27;;;;;;;;;;;;;;;20.22;54.59;100991.19;5048005;28;1551;-59
2021/04/26 07:18:53;;;;;;;;;;;;;;;20.20;55.21;100999.38;5051554;28;1574;-61
2021/04/26 07:21:19;;;;;;;;;;;;;;;20.18;54.31;100990.63;5045407;28;1499;-61
2021/04/26 07:23:45;;;;;;;;;;;;;;;20.18;54.71;100982.56;5045366;28;1909;-60
2021/04/26 07:26:12;;;;;;;;;;;;;;;20.19;54.51;100992.34;5045747;28;1717;-57
2021/04/26 07:28:38;;;;;;;;;;;;;;;20.17;54.84;100988.91;5046313;28;1877;-58
2021/04/26 07:31:04;;;;;;;;;;;;;;;20.18;54.90;100998.69;5052875;28;1412;-58
2021/04/26 07:33:31;;;;;;;;;;;;;;;20.14;54.63;100986.50;5045557;28;1732;-58
2021/04/26 07:35:57;;;;;;;;;;;;;;;20.18;54.96;101003.19;5049836;28;1406;-57
2021/04/26 07:38:23;;;;;;;;;;;;;;;20.19;55.21;101003.06;5050515;28;1387;-58
2021/04/26 07:40:49;;;;;;;;;;;;;;;20.20;55.01;101003.91;5050621;28;1307;-57
2021/04/26 07:43:15;;;;;;;;;;;;;;;20.19;55.02;101010.25;5048533;28;1665;-57
2021/04/26 07:45:41;;;;;;;;;;;;;;;20.15;55.40;101007.00;5050709;28;1898;-57
2021/04/26 07:48:07;;;;;;;;;;;;;;;20.14;54.34;101005.31;5049853;28;1549;-54
2021/04/26 07:50:34;;;;;;;;;;;;;;;20.24;55.31;100995.44;5050858;28;1517;-54
2021/04/26 07:53:01;;;;;;;;;;;;;;;20.18;55.53;101009.41;5050233;28;1498;-54
2021/04/26 07:55:27;;;;;;;;;;;;;;;20.18;55.30;101006.72;5050930;28;1396;-53
2021/04/26 07:57:53;;;;;;;;;;;;;;;20.20;55.62;101002.06;5052977;28;1701;-53
2021/04/26 08:00:19;;;;;;;;;;;;;;;20.20;55.55;100996.69;5052794;28;1609;-54
2021/04/26 08:02:45;;;;;;;;;;;;;;;20.21;55.40;101005.59;5058994;28;1505;-53
2021/04/26 08:05:12;;;;;;;;;;;;;;;20.20;56.26;101011.97;5055960;28;1968;-51
2021/04/26 08:07:39;;;;;;;;;;;;;;;20.18;55.45;101017.47;5054773;28;1519;-53
2021/04/26 08:10:05;;;;;;;;;;;;;;;20.18;56.28;101013.94;5054486;28;1277;-53
2021/04/26 08:12:32;;;;;;;;;;;;;;;20.08;55.39;100992.44;5054295;28;1567;-55
2021/04/26 08:14:58;;;;;;;;;;;;;;;20.04;55.56;101004.44;5050652;28;1343;-53
2021/04/26 08:17:24;;;;;;;;;;;;;;;20.04;55.21;100997.22;5054978;28;1502;-54
2021/04/26 08:19:50;;;;;;;;;;;;;;;20.02;54.87;100988.47;5055195;28;1474;-54
2021/04/26 08:22:16;;;;;;;;;;;;;;;20.01;54.75;100984.06;5054977;28;1796;-54
2021/04/26 08:24:43;;;;;;;;;;;;;;;20.00;55.07;100981.53;5043402;28;2325;-56
2021/04/26 08:27:09;;;;;;;;;;;;;;;19.99;54.94;100969.09;5049711;28;1614;-53
2021/04/26 08:29:35;;;;;;;;;;;;;;;19.99;54.92;100969.09;5051125;28;1570;-54
2021/04/26 08:32:01;;;;;;;;;;;;;;;19.99;54.75;100977.13;5050145;28;1555;-54
2021/04/26 08:34:27;;;;;;;;;;;;;;;20.02;54.45;100979.56;5057788;28;1499;-54
2021/04/26 08:36:53;;;;;;;;;;;;;;;20.15;53.64;100974.78;5054373;28;1419;-55
2021/04/26 08:39:19;;;;;;;;;;;;;;;20.10;52.02;100978.88;5053989;28;1541;-55
2021/04/26 08:41:47;;;;;;;;;;;;;;;19.99;52.11;100974.44;5053604;28;1398;-53
2021/04/26 08:44:13;;;;;;;;;;;;;;;19.98;52.20;100975.47;5053225;28;1975;-55
2021/04/26 08:46:41;;;;;;;;;;;;;;;19.95;52.13;100967.66;5053917;28;1533;-54
2021/04/26 08:49:08;;;;;;;;;;;;;;;19.92;52.02;100960.75;5054889;28;1212;-52
2021/04/26 08:51:34;;;;;;;;;;;;;;;19.88;51.65;100953.13;5054004;28;1470;-55
2021/04/26 08:54:00;;;;;;;;;;;;;;;19.86;52.25;100959.44;5054469;28;1419;-54
2021/04/26 08:56:26;;;;;;;;;;;;;;;19.86;51.33;100953.25;5054816;28;1554;-54
2021/04/26 08:58:52;;;;;;;;;;;;;;;19.84;50.89;100948.00;5053656;28;1706;-53
2021/04/26 09:01:18;;;;;;;;;;;;;;;19.88;49.83;100956.63;5054323;28;1526;-54
2021/04/26 09:03:46;;;;;;;;;;;;;;;19.86;48.78;100932.59;5052988;28;1975;-53
2021/04/26 09:06:12;;;;;;;;;;;;;;;19.86;48.43;100935.28;5054199;28;1442;-54
2021/04/26 09:08:38;;;;;;;;;;;;;;;19.87;48.86;100944.19;5054879;28;1387;-53
2021/04/26 09:11:05;;;;;;;;;;;;;;;19.82;49.18;100931.19;5053776;28;1422;-55
2021/04/26 09:13:33;;;;;;;;;;;;;;;19.82;49.46;100941.94;5054414;28;1581;-54
2021/04/26 09:16:01;;;;;;;;;;;;;;;19.79;48.42;100947.53;5053039;28;1320;-53
2021/04/26 09:18:46;;;;;;;;;;;;;;;19.81;49.34;100940.22;5053713;28;1503;-54
2021/04/26 09:21:13;;;;;;;;;;;;;;;19.77;49.33;100938.78;5047027;28;1705;-53
2021/04/26 09:23:39;;;;;;;;;;;;;;;19.77;49.09;100938.78;5050399;28;1902;-53
2021/04/26 09:26:06;;;;;;;;;;;;;;;19.76;48.95;100931.75;5055431;28;1331;-54
2021/04/26 09:28:32;;;;;;;;;;;;;;;19.75;48.58;100924.66;5055018;28;2065;-53
2021/04/26 09:30:58;;;;;;;;;;;;;;;19.74;48.57;100936.41;5053486;28;1431;-53
2021/04/26 09:33:30;;;;;;;;;;;;;;;19.73;48.16;100926.63;5053362;28;1717;-54
2021/04/26 09:36:00;;;;;;;;;;;;;;;19.73;48.11;100926.63;5059622;28;1701;-53
2021/04/26 09:38:27;;;;;;;;;;;;;;;19.72;48.16;100924.09;5060806;28;1543;-54
2021/04/26 09:41:06;;;;;;;;;;;;;;;19.72;48.47;100941.06;5054923;28;1549;-55
2021/04/26 09:43:33;;;;;;;;;;;;;;;19.72;48.06;100924.09;5053818;28;1981;-55
2021/04/26 09:45:59;;;;;;;;;;;;;;;19.78;47.26;100924.41;5054528;28;1553;-54
2021/04/26 09:48:27;;;;;;;;;;;;;;;19.75;47.44;100919.28;5054039;28;1434;-55
2021/04/26 09:50:54;;;;;;;;;;;;;;;19.75;47.92;100930.03;5054861;28;1379;-54
2021/04/26 09:53:21;;;;;;;;;;;;;;;19.71;48.02;100923.25;5053104;28;1634;-54
2021/04/26 09:55:47;;;;;;;;;;;;;;;19.70;48.25;100921.53;5053425;28;1317;-54
2021/04/26 09:58:13;;;;;;;;;;;;;;;19.70;47.93;100916.16;5054048;28;1403;-55
2021/04/26 10:00:42;;;;;;;;;;;;;;;19.68;48.04;100918.97;5054366;28;1470;-55
2021/04/26 10:03:09;;;;;;;;;;;;;;;19.65;47.60;100924.59;5055673;28;1819;-53
2021/04/26 10:05:36;;;;;;;;;;;;;;;19.65;47.99;100918.38;5054499;28;1983;-54
2021/04/26 10:08:02;;;;;;;;;;;;;;;19.65;48.21;100919.22;5054279;28;1259;-53
2021/04/26 10:10:28;;;;;;;;;;;;;;;19.65;47.91;100924.59;5053700;28;1404;-53
2021/04/26 10:12:55;;;;;;;;;;;;;;;19.63;47.45;100915.84;5053131;28;1391;-55
2021/04/26 10:15:25;;;;;;;;;;;;;;;19.61;47.84;100938.44;5052733;28;1376;-53
2021/04/26 10:17:52;;;;;;;;;;;;;;;19.62;47.88;100930.25;5053142;28;1557;-55
2021/04/26 10:20:31;;;;;;;;;;;;;;;19.60;47.53;100926.00;5053889;28;1375;-54
2021/04/26 10:22:58;;;;;;;;;;;;;;;19.76;46.97;100933.59;5053121;28;1657;-54
2021/04/26 10:25:37;;;;;;;;;;;;;;;19.78;46.55;100921.72;5053533;28;1982;-53
2021/04/26 10:28:27;;;;;;;;;;;;;;;19.75;46.13;100924.66;5058120;28;1509;-55
2021/04/26 10:30:57;;;;;;;;;;;;;;;19.77;45.42;100917.31;5058907;28;1776;-56
2021/04/26 10:33:23;;;;;;;;;;;;;;;19.99;45.59;100918.09;5056033;28;1410;-59
2021/04/26 10:35:50;;;;;;;;;;;;;;;20.07;44.42;100915.56;5046341;28;1394;-61
2021/04/26 10:38:36;;;;;;;;;;;;;;;20.15;43.41;100910.31;5048553;28;1470;-59
2021/04/26 10:41:03;;;;;;;;;;;;;;;20.09;43.05;100931.53;5047575;28;1318;-60
2021/04/26 10:43:30;;;;;;;;;;;;;;;20.09;43.10;100927.00;5050029;28;1424;-60
2021/04/26 10:46:11;;;;;;;;;;;;;;;20.02;42.94;100910.59;5048693;28;1975;-60
2021/04/26 10:48:37;;;;;;;;;;;;;;;19.99;43.10;100912.72;5048381;28;1286;-59
2021/04/26 10:51:20;;;;;;;;;;;;;;;20.00;43.47;100914.44;5048628;28;1311;-59
2021/04/26 10:53:47;;;;;;;;;;;;;;;20.06;42.67;100914.72;5047470;28;1363;-59
2021/04/26 10:56:23;;;;;;;;;;;;;;;20.09;41.83;100916.25;5052525;28;1908;-57
2021/04/26 10:58:52;;;;;;;;;;;;;;;20.00;41.09;100907.22;5048891;28;1406;-57
2021/04/26 11:01:38;;;;;;;;;;;;;;;19.98;40.36;100892.25;5049534;28;1665;-57
2021/04/26 11:04:05;;;;;;;;;;;;;;;20.00;39.89;100901.84;5052568;28;2068;-58
2021/04/26 11:06:31;;;;;;;;;;;;;;;20.11;40.41;100898.19;5053562;28;1373;-59
2021/04/26 11:09:16;;;;;;;;;;;;;;;20.08;40.57;100903.00;5052863;28;1363;-58
2021/04/26 11:11:56;;;;;;;;;;;;;;;20.02;40.58;100907.09;5052939;28;1380;-59
2021/04/26 11:14:23;;;;;;;;;;;;;;;20.03;41.05;100898.91;5053195;28;1244;-59
2021/04/26 11:17:08;;;;;;;;;;;;;;;20.04;39.81;100913.16;5052745;28;1569;-58
2021/04/26 11:19:56;;;;;;;;;;;;;;;20.11;40.16;100900.03;5053183;28;1233;-59
2021/04/26 11:22:35;;;;;;;;;;;;;;;20.04;40.60;100891.69;5050351;28;1761;-59
2021/04/26 11:25:04;;;;;;;;;;;;;;;19.97;41.42;100895.91;5047943;28;1902;-60
2021/04/26 11:27:35;;;;;;;;;;;;;;;19.89;41.52;100891.22;5047933;28;1742;-58
2021/04/26 11:30:14;;;;;;;;;;;;;;;19.92;41.58;100890.13;5046857;28;1501;-60
2021/04/26 11:32:55;;;;;;;;;;;;;;;19.92;42.17;100892.81;5047013;28;1292;-57
2021/04/26 11:35:21;;;;;;;;;;;;;;;19.90;42.33;100894.78;5045410;28;1379;-60
2021/04/26 11:37:47;;;;;;;;;;;;;;;19.90;42.73;100890.25;5050952;28;1652;-60
2021/04/26 11:40:15;;;;;;;;;;;;;;;19.91;43.16;100880.34;5052224;28;1533;-60
2021/04/26 11:42:42;;;;;;;;;;;;;;;19.91;43.57;100880.34;5053574;28;1379;-60
2021/04/26 11:45:09;;;;;;;;;;;;;;;19.93;43.48;100881.06;5053766;28;1918;-57
2021/04/26 11:47:35;;;;;;;;;;;;;;;19.92;43.75;100876.69;5055648;28;1410;-57
2021/04/26 11:50:03;;;;;;;;;;;;;;;19.94;43.92;100877.41;5055762;28;1105;-57
2021/04/26 11:52:30;;;;;;;;;;;;;;;19.91;44.62;100869.63;5056090;28;1582;-58
2021/04/26 11:55:08;;;;;;;;;;;;;;;19.87;45.10;100874.41;5055867;28;1689;-57
2021/04/26 11:57:39;;;;;;;;;;;;;;;19.84;45.13;100869.34;5055467;28;1392;-58
2021/04/26 12:00:08;;;;;;;;;;;;;;;19.82;45.33;100874.84;5053466;28;1418;-60
2021/04/26 12:02:37;;;;;;;;;;;;;;;19.79;45.82;100877.78;5058345;28;1506;-61
2021/04/26 12:05:04;;;;;;;;;;;;;;;19.82;46.60;100869.47;5053421;28;1977;-60
2021/04/26 12:07:31;;;;;;;;;;;;;;;19.82;45.97;100882.03;5056307;28;1351;-61
2021/04/26 12:09:58;;;;;;;;;;;;;;;19.84;45.88;100867.50;5057167;28;1408;-57
2021/04/26 12:12:25;;;;;;;;;;;;;;;19.80;46.36;100863.41;5057252;28;1657;-60
2021/04/26 12:14:52;;;;;;;;;;;;;;;19.82;46.84;100856.06;5056172;28;1351;-60
2021/04/26 12:17:21;;;;;;;;;;;;;;;19.81;46.36;100856.19;5056068;28;1408;-57
2021/04/26 12:19:47;;;;;;;;;;;;;;;19.81;46.57;100854.34;5056112;28;1440;-60
2021/04/26 12:22:14;;;;;;;;;;;;;;;19.78;46.58;100843.91;5056735;28;1601;-60
2021/04/26 12:24:41;;;;;;;;;;;;;;;19.78;46.75;100838.53;5058430;28;1985;-60
2021/04/26 12:27:08;;;;;;;;;;;;;;;19.78;47.00;100830.47;5060461;28;1541;-60
2021/04/26 12:29:34;;;;;;;;;;;;;;;19.77;46.78;100842.19;5056868;28;1650;-60
2021/04/26 12:32:10;;;;;;;;;;;;;;;19.75;46.44;100825.38;5053317;28;1258;-60
2021/04/26 12:34:50;;;;;;;;;;;;;;;19.79;46.67;100824.13;5057382;28;994;-60
2021/04/26 12:37:16;;;;;;;;;;;;;;;19.75;46.76;100828.06;5055424;28;1230;-57
2021/04/26 12:39:42;;;;;;;;;;;;;;;19.75;46.65;100827.22;5058133;28;1566;-60
2021/04/26 12:42:10;;;;;;;;;;;;;;;19.76;46.76;100829.78;5056147;28;1435;-58
2021/04/26 12:44:36;;;;;;;;;;;;;;;19.74;47.38;100809.44;5055988;28;1967;-60
2021/04/26 12:47:14;;;;;;;;;;;;;;;19.70;47.20;100811.53;5055702;28;1468;-59
2021/04/26 12:49:40;;;;;;;;;;;;;;;19.72;47.13;100811.41;5058910;28;1344;-60
2021/04/26 12:52:15;;;;;;;;;;;;;;;19.76;46.88;100799.41;5058416;28;1691;-61